Time;durP1;ratioP1;P1;durP2;ratioP2;P2;SDS_P1;SDS_P2;PMS_P1;PMS_P2;Temp;Humidity;BMP_temperature;BMP_pressure;BME280_temperature;BME280_humidity;BME280_pressure;Samples;Min_cycle;Max_cycle;Signal;HPM_P1;HPM_P2
2022/12/15 00:40:36;;;;;;;1.58;1.48;;;;;;;;;;5075023;28;20054;-92
2022/12/15 00:43:04;;;;;;;1.83;1.73;;;;;;;;;;5074525;28;20075;-88
2022/12/15 00:48:11;;;;;;;1.50;1.40;;;;;;;;;;5074200;28;20072;-90
2022/12/15 00:50:52;;;;;;;1.85;1.77;;;;;;;;;;5074938;28;20048;-89
2022/12/15 01:20:41;;;;;;;1.67;1.58;;;;;;;;;;5056800;28;20150;-90
2022/12/15 01:23:07;;;;;;;1.60;1.50;;;;;;;;;;5055444;28;20099;-89
2022/12/15 01:25:34;;;;;;;1.95;1.85;;;;;;;;;;5054170;28;20053;-89
2022/12/15 01:28:00;;;;;;;1.80;1.70;;;;;;;;;;5054071;28;20094;-88
2022/12/15 01:30:28;;;;;;;1.20;1.17;;;;;;;;;;5072996;28;20180;-89
2022/12/15 01:32:54;;;;;;;1.17;1.15;;;;;;;;;;5073982;28;20052;-91
2022/12/15 01:35:21;;;;;;;1.60;1.58;;;;;;;;;;5073626;28;20056;-88
2022/12/15 01:37:48;;;;;;;1.80;1.70;;;;;;;;;;5073510;28;20052;-88
2022/12/15 01:42:59;;;;;;;1.08;1.08;;;;;;;;;;5073526;28;20125;-89
2022/12/15 01:45:46;;;;;;;1.25;1.23;;;;;;;;;;5072978;28;20110;-89
2022/12/15 01:48:13;;;;;;;1.35;1.25;;;;;;;;;;5072447;28;20084;-89
2022/12/15 01:50:42;;;;;;;1.15;1.13;;;;;;;;;;5072507;28;20559;-89
2022/12/15 01:53:09;;;;;;;1.42;1.35;;;;;;;;;;5072834;28;20463;-88
2022/12/15 01:55:36;;;;;;;1.75;1.65;;;;;;;;;;5072917;28;20501;-89
2022/12/15 01:58:05;;;;;;;1.13;1.10;;;;;;;;;;5073419;28;20079;-90
2022/12/15 02:00:32;;;;;;;1.35;1.35;;;;;;;;;;5073165;28;20120;-90
2022/12/15 02:03:01;;;;;;;1.63;1.48;;;;;;;;;;5073038;28;20102;-88
2022/12/15 02:05:28;;;;;;;0.80;0.80;;;;;;;;;;5072927;28;20044;-90
2022/12/15 02:07:54;;;;;;;1.40;1.35;;;;;;;;;;5072714;28;20053;-88
2022/12/15 02:10:21;;;;;;;1.15;1.15;;;;;;;;;;5072245;28;20048;-88
2022/12/15 02:12:51;;;;;;;2.03;1.92;;;;;;;;;;5072594;28;20098;-88
2022/12/15 02:15:20;;;;;;;1.67;1.58;;;;;;;;;;5072112;28;20078;-88
2022/12/15 02:17:51;;;;;;;2.72;2.47;;;;;;;;;;5072272;28;20049;-88
2022/12/15 02:20:40;;;;;;;1.83;1.73;;;;;;;;;;5072185;28;20049;-89
2022/12/15 02:23:19;;;;;;;1.73;1.67;;;;;;;;;;5072332;28;20113;-89
2022/12/15 02:25:54;;;;;;;1.60;1.50;;;;;;;;;;5072093;28;20044;-89
2022/12/15 02:28:28;;;;;;;1.52;1.45;;;;;;;;;;5072646;28;20044;-89
2022/12/15 02:33:44;;;;;;;1.90;1.80;;;;;;;;;;5071632;28;20056;-89
2022/12/15 02:36:15;;;;;;;1.25;1.23;;;;;;;;;;5072493;28;20044;-90
2022/12/15 02:38:42;;;;;;;2.03;1.90;;;;;;;;;;5071991;28;20080;-90
2022/12/15 02:41:23;;;;;;;2.65;2.55;;;;;;;;;;5072952;28;20049;-91
2022/12/15 02:43:50;;;;;;;1.65;1.63;;;;;;;;;;5072491;28;20083;-91
2022/12/15 02:46:23;;;;;;;0.95;0.95;;;;;;;;;;5072491;28;20506;-90
2022/12/15 02:48:55;;;;;;;1.60;1.50;;;;;;;;;;5072766;28;20053;-91
2022/12/15 02:51:27;;;;;;;2.65;2.55;;;;;;;;;;5072892;28;20118;-91
2022/12/15 02:54:12;;;;;;;2.08;1.98;;;;;;;;;;5072472;28;20525;-90
2022/12/15 02:56:43;;;;;;;1.38;1.33;;;;;;;;;;5072379;28;20052;-90
2022/12/15 02:59:13;;;;;;;0.98;0.93;;;;;;;;;;5072652;28;20456;-90
2022/12/15 03:01:43;;;;;;;2.63;2.53;;;;;;;;;;5072274;28;20053;-90
2022/12/15 03:04:10;;;;;;;3.05;2.85;;;;;;;;;;5072638;28;20048;-91
2022/12/15 03:06:37;;;;;;;2.45;2.00;;;;;;;;;;5073050;28;20048;-91
2022/12/15 03:09:03;;;;;;;1.92;1.83;;;;;;;;;;5072336;28;20099;-91
2022/12/15 03:11:30;;;;;;;3.05;2.92;;;;;;;;;;5079186;28;20452;-90
2022/12/15 03:13:57;;;;;;;1.75;1.73;;;;;;;;;;5077145;28;20056;-92
2022/12/15 03:16:23;;;;;;;0.80;0.80;;;;;;;;;;5074652;28;20040;-92
2022/12/15 03:18:51;;;;;;;1.27;1.25;;;;;;;;;;5072954;28;20110;-92
2022/12/15 03:21:18;;;;;;;0.82;0.82;;;;;;;;;;5052942;28;20118;-92
2022/12/15 03:23:44;;;;;;;1.13;0.93;;;;;;;;;;5052817;28;20075;-91
2022/12/15 03:26:11;;;;;;;1.52;1.45;;;;;;;;;;5052760;28;20456;-91
2022/12/15 03:28:38;;;;;;;1.92;1.83;;;;;;;;;;5052540;28;20084;-91
2022/12/15 03:31:05;;;;;;;2.60;2.50;;;;;;;;;;5052336;28;20560;-92
2022/12/15 03:33:32;;;;;;;2.88;2.67;;;;;;;;;;5052539;28;20088;-91
2022/12/15 03:36:00;;;;;;;1.58;1.45;;;;;;;;;;5053132;28;20053;-92
2022/12/15 03:38:26;;;;;;;3.10;2.90;;;;;;;;;;5052392;28;20059;-91
2022/12/15 03:40:53;;;;;;;1.35;1.35;;;;;;;;;;5052466;28;20410;-91
2022/12/15 03:43:19;;;;;;;1.25;1.23;;;;;;;;;;5052592;28;20061;-91
2022/12/15 03:45:46;;;;;;;1.75;1.70;;;;;;;;;;5052317;28;20045;-90
2022/12/15 03:48:12;;;;;;;1.75;1.65;;;;;;;;;;5052199;28;20126;-90
2022/12/15 03:50:39;;;;;;;1.50;1.48;;;;;;;;;;5051712;28;20135;-90
2022/12/15 03:53:07;;;;;;;2.03;1.92;;;;;;;;;;5052089;28;20120;-90
2022/12/15 03:55:35;;;;;;;2.05;1.95;;;;;;;;;;5051718;28;20053;-91
2022/12/15 03:58:01;;;;;;;2.08;1.98;;;;;;;;;;5052133;28;20120;-90
2022/12/15 04:00:28;;;;;;;2.80;2.70;;;;;;;;;;5063290;28;20127;-90
2022/12/15 04:02:54;;;;;;;2.05;1.95;;;;;;;;;;5071960;28;20048;-90
2022/12/15 04:05:24;;;;;;;1.50;1.40;;;;;;;;;;5071568;28;20048;-90
2022/12/15 04:07:51;;;;;;;1.85;1.73;;;;;;;;;;5071836;28;20464;-90
2022/12/15 04:10:18;;;;;;;1.67;1.58;;;;;;;;;;5071340;28;20045;-90
2022/12/15 04:12:45;;;;;;;0.88;0.88;;;;;;;;;;5072052;28;20052;-90
2022/12/15 04:15:11;;;;;;;1.00;0.98;;;;;;;;;;5071988;28;20105;-91
2022/12/15 04:17:38;;;;;;;1.92;1.83;;;;;;;;;;5071855;28;20052;-91
2022/12/15 04:20:10;;;;;;;2.13;2.03;;;;;;;;;;5071766;28;20044;-90
2022/12/15 04:22:37;;;;;;;2.40;2.30;;;;;;;;;;5073990;28;20513;-90
2022/12/15 05:33:35;;;;;;;1.55;1.45;;;;;;;;;;5072919;28;20109;-89
2022/12/15 05:36:01;;;;;;;1.67;1.58;;;;;;;;;;5073356;28;20551;-89
2022/12/15 05:38:27;;;;;;;2.20;2.00;;;;;;;;;;5073915;28;20577;-89
2022/12/15 05:40:56;;;;;;;3.20;2.88;;;;;;;;;;5073556;28;20040;-89
2022/12/15 05:43:23;;;;;;;3.78;3.03;;;;;;;;;;5073210;28;20505;-89
2022/12/15 05:45:49;;;;;;;2.58;2.45;;;;;;;;;;5073028;28;20114;-89
2022/12/15 05:48:16;;;;;;;3.53;2.63;;;;;;;;;;5073394;28;20048;-89
2022/12/15 05:50:44;;;;;;;1.95;1.85;;;;;;;;;;5072942;28;20074;-89
2022/12/15 05:53:10;;;;;;;3.90;3.70;;;;;;;;;;5072962;28;20059;-89
2022/12/15 05:55:37;;;;;;;3.80;3.47;;;;;;;;;;5072341;28;20406;-89
2022/12/15 05:58:03;;;;;;;3.10;2.30;;;;;;;;;;5072960;28;20472;-89
2022/12/15 06:00:30;;;;;;;3.20;2.90;;;;;;;;;;5072648;28;20102;-89
2022/12/15 06:02:57;;;;;;;3.55;3.30;;;;;;;;;;5072396;28;20552;-88
2022/12/15 06:05:24;;;;;;;3.22;3.03;;;;;;;;;;5072816;28;20129;-89
2022/12/15 06:07:52;;;;;;;3.97;3.70;;;;;;;;;;5072983;28;20056;-88
2022/12/15 06:10:18;;;;;;;3.42;3.22;;;;;;;;;;5072132;28;20859;-88
2022/12/15 06:12:44;;;;;;;3.55;3.35;;;;;;;;;;5072649;28;20041;-88
2022/12/15 06:15:11;;;;;;;5.93;3.10;;;;;;;;;;5072275;28;20106;-88
2022/12/15 06:17:37;;;;;;;3.63;3.08;;;;;;;;;;5078165;28;20047;-88
2022/12/15 06:20:04;;;;;;;4.45;4.15;;;;;;;;;;5092041;28;20101;-89
2022/12/15 06:22:31;;;;;;;4.30;4.00;;;;;;;;;;5070808;28;20110;-89
2022/12/15 06:24:58;;;;;;;3.50;3.20;;;;;;;;;;5071265;28;20052;-89
2022/12/15 06:27:25;;;;;;;4.38;3.78;;;;;;;;;;5072092;28;20098;-89
2022/12/15 06:29:51;;;;;;;3.00;2.80;;;;;;;;;;5072584;28;20052;-89
2022/12/15 06:32:20;;;;;;;2.72;2.50;;;;;;;;;;5071929;28;20498;-89
2022/12/15 06:34:47;;;;;;;3.42;3.13;;;;;;;;;;5072616;28;20056;-89
2022/12/15 06:37:13;;;;;;;3.42;3.20;;;;;;;;;;5071790;28;20125;-89
2022/12/15 06:39:40;;;;;;;3.60;2.88;;;;;;;;;;5071832;28;20106;-89
2022/12/15 06:42:08;;;;;;;2.63;2.40;;;;;;;;;;5071924;28;20057;-89
2022/12/15 06:44:34;;;;;;;2.40;2.03;;;;;;;;;;5071717;28;20048;-89
2022/12/15 06:47:01;;;;;;;5.05;4.60;;;;;;;;;;5071787;28;20056;-89
2022/12/15 06:49:27;;;;;;;3.78;3.47;;;;;;;;;;5071777;28;20049;-89
2022/12/15 06:51:54;;;;;;;2.45;2.33;;;;;;;;;;5071837;28;20041;-89
2022/12/15 06:54:20;;;;;;;4.82;2.85;;;;;;;;;;5071719;28;20056;-89
2022/12/15 06:56:47;;;;;;;3.17;2.75;;;;;;;;;;5073226;28;20106;-89
2022/12/15 06:59:14;;;;;;;1.75;1.60;;;;;;;;;;5071582;28;20052;-89
2022/12/15 07:01:41;;;;;;;4.68;3.47;;;;;;;;;;5071845;28;20106;-90
2022/12/15 07:04:09;;;;;;;2.78;2.42;;;;;;;;;;5072196;28;20048;-89
2022/12/15 07:06:37;;;;;;;3.63;3.33;;;;;;;;;;5074258;28;20482;-88
2022/12/15 07:09:04;;;;;;;2.72;2.63;;;;;;;;;;5073387;28;20493;-89
2022/12/15 07:11:30;;;;;;;3.15;2.95;;;;;;;;;;5073491;28;20045;-90
2022/12/15 07:13:56;;;;;;;5.82;2.85;;;;;;;;;;5072166;28;20102;-89
2022/12/15 07:16:25;;;;;;;4.13;3.90;;;;;;;;;;5071563;28;20044;-89
2022/12/15 07:18:52;;;;;;;3.15;2.92;;;;;;;;;;5071910;28;20409;-89
2022/12/15 07:21:18;;;;;;;1.45;1.35;;;;;;;;;;5071726;28;20083;-89
2022/12/15 07:23:45;;;;;;;2.47;2.38;;;;;;;;;;5070751;28;20094;-89
2022/12/15 07:26:12;;;;;;;2.33;2.13;;;;;;;;;;5071613;28;20098;-89
2022/12/15 07:28:39;;;;;;;3.13;2.30;;;;;;;;;;5071601;28;20070;-89
2022/12/15 07:31:06;;;;;;;2.97;2.78;;;;;;;;;;5071587;28;20088;-90
2022/12/15 07:33:35;;;;;;;3.20;3.00;;;;;;;;;;5071730;28;20040;-88
2022/12/15 07:36:02;;;;;;;3.35;3.15;;;;;;;;;;5071587;28;20106;-89
2022/12/15 07:38:29;;;;;;;7.07;3.78;;;;;;;;;;5071890;28;20048;-89
2022/12/15 07:40:55;;;;;;;3.05;2.33;;;;;;;;;;5071967;28;20112;-90
2022/12/15 07:43:22;;;;;;;2.88;2.53;;;;;;;;;;5072178;28;20044;-89
2022/12/15 07:45:51;;;;;;;2.97;2.67;;;;;;;;;;5072197;28;20048;-88
2022/12/15 07:48:18;;;;;;;5.72;2.10;;;;;;;;;;5072221;28;20049;-88
2022/12/15 07:50:46;;;;;;;2.85;2.33;;;;;;;;;;5071583;28;20053;-91
2022/12/15 07:53:12;;;;;;;2.88;2.25;;;;;;;;;;5071872;28;20525;-89
2022/12/15 07:55:40;;;;;;;2.72;2.58;;;;;;;;;;5073405;28;20056;-89
2022/12/15 07:58:07;;;;;;;5.68;3.50;;;;;;;;;;5075823;28;20048;-90
2022/12/15 08:00:34;;;;;;;3.45;3.25;;;;;;;;;;5075688;28;20448;-89
2022/12/15 08:03:01;;;;;;;5.05;4.65;;;;;;;;;;5075517;28;20049;-89
2022/12/15 08:05:27;;;;;;;5.05;4.70;;;;;;;;;;5075743;28;20107;-88
2022/12/15 08:07:56;;;;;;;4.88;4.47;;;;;;;;;;5075266;28;20044;-89
2022/12/15 08:10:23;;;;;;;5.60;3.70;;;;;;;;;;5075649;28;20460;-90
2022/12/15 08:12:49;;;;;;;5.30;4.97;;;;;;;;;;5075560;28;20114;-88
2022/12/15 08:15:16;;;;;;;4.75;4.35;;;;;;;;;;5075602;28;20053;-88
2022/12/15 08:17:45;;;;;;;6.25;4.93;;;;;;;;;;5074940;28;20052;-89
2022/12/15 08:20:13;;;;;;;3.28;3.08;;;;;;;;;;5075120;28;20045;-89
2022/12/15 08:22:40;;;;;;;5.00;4.32;;;;;;;;;;5075344;28;20482;-89
2022/12/15 08:25:08;;;;;;;6.00;5.22;;;;;;;;;;5075284;28;20044;-90
2022/12/15 08:27:35;;;;;;;4.80;4.53;;;;;;;;;;5075056;28;20052;-89
2022/12/15 08:30:02;;;;;;;6.00;5.60;;;;;;;;;;5074879;28;20097;-88
2022/12/15 08:32:28;;;;;;;8.38;6.65;;;;;;;;;;5074793;28;20064;-88
2022/12/15 08:34:55;;;;;;;5.25;4.85;;;;;;;;;;5074280;28;20040;-88
2022/12/15 08:37:21;;;;;;;4.90;4.55;;;;;;;;;;5073357;28;20090;-88
2022/12/15 08:39:48;;;;;;;6.78;6.10;;;;;;;;;;5074168;28;20497;-88
2022/12/15 08:42:15;;;;;;;4.25;3.85;;;;;;;;;;5074510;28;20049;-89
2022/12/15 08:44:42;;;;;;;4.15;3.67;;;;;;;;;;5074486;28;20383;-90
2022/12/15 08:47:08;;;;;;;4.82;4.47;;;;;;;;;;5074677;28;20056;-90
2022/12/15 08:49:35;;;;;;;3.75;3.55;;;;;;;;;;5074444;28;20052;-90
2022/12/15 08:52:01;;;;;;;5.18;4.78;;;;;;;;;;5074381;28;20059;-90
2022/12/15 08:54:28;;;;;;;4.88;4.57;;;;;;;;;;5074473;28;20109;-90
2022/12/15 08:56:54;;;;;;;5.22;4.88;;;;;;;;;;5074462;28;20049;-90
2022/12/15 08:59:22;;;;;;;3.53;3.33;;;;;;;;;;5074510;28;20083;-90
2022/12/15 09:01:49;;;;;;;2.72;2.55;;;;;;;;;;5053818;28;20045;-90
2022/12/15 09:04:15;;;;;;;4.85;4.28;;;;;;;;;;5057989;28;20053;-89
2022/12/15 09:06:42;;;;;;;3.35;3.15;;;;;;;;;;5071209;28;20044;-90
2022/12/15 09:09:10;;;;;;;4.25;4.05;;;;;;;;;;5074867;28;20103;-90
2022/12/15 09:11:37;;;;;;;2.80;2.60;;;;;;;;;;5074679;28;20382;-90
2022/12/15 09:14:04;;;;;;;4.70;4.40;;;;;;;;;;5074392;28;20044;-90
2022/12/15 09:16:32;;;;;;;3.17;3.05;;;;;;;;;;5073955;28;20095;-90
2022/12/15 09:18:59;;;;;;;2.97;2.72;;;;;;;;;;5074424;28;20048;-90
2022/12/15 09:21:26;;;;;;;2.70;2.60;;;;;;;;;;5073960;28;20044;-90
2022/12/15 09:23:54;;;;;;;4.05;3.85;;;;;;;;;;5074009;28;20117;-90
2022/12/15 09:26:21;;;;;;;3.78;3.53;;;;;;;;;;5074150;28;20079;-90
2022/12/15 09:28:48;;;;;;;3.13;2.88;;;;;;;;;;5073792;28;20052;-88
2022/12/15 09:31:15;;;;;;;2.22;2.13;;;;;;;;;;5073564;28;20098;-90
2022/12/15 09:33:44;;;;;;;2.80;2.60;;;;;;;;;;5073957;28;20044;-90
2022/12/15 09:36:11;;;;;;;2.90;2.70;;;;;;;;;;5073619;28;20094;-89
2022/12/15 09:38:39;;;;;;;2.33;2.20;;;;;;;;;;5073384;28;20487;-88
2022/12/15 09:41:09;;;;;;;3.38;3.25;;;;;;;;;;5073589;28;20048;-89
2022/12/15 09:43:37;;;;;;;2.97;2.88;;;;;;;;;;5073739;28;20049;-89
2022/12/15 09:46:06;;;;;;;3.38;3.25;;;;;;;;;;5073675;28;20053;-89
2022/12/15 09:48:36;;;;;;;2.17;2.08;;;;;;;;;;5073232;28;20712;-89
2022/12/15 09:51:04;;;;;;;2.60;2.50;;;;;;;;;;5073064;28;20102;-89
2022/12/15 09:53:31;;;;;;;4.15;3.95;;;;;;;;;;5073105;28;20056;-89
2022/12/15 09:56:03;;;;;;;3.35;3.15;;;;;;;;;;5073477;28;20490;-89
2022/12/15 09:58:34;;;;;;;2.90;2.78;;;;;;;;;;5073367;28;20056;-90
2022/12/15 10:01:08;;;;;;;3.22;3.10;;;;;;;;;;5073203;28;20057;-89
2022/12/15 10:03:40;;;;;;;3.05;2.92;;;;;;;;;;5073096;28;20070;-89
2022/12/15 10:06:09;;;;;;;3.03;2.83;;;;;;;;;;5072972;28;20517;-89
2022/12/15 10:08:38;;;;;;;2.70;2.58;;;;;;;;;;5073252;28;20135;-89
2022/12/15 10:11:06;;;;;;;4.30;4.13;;;;;;;;;;5072837;28;20079;-90
2022/12/15 10:13:40;;;;;;;3.67;3.47;;;;;;;;;;5072976;28;20117;-89
2022/12/15 10:16:14;;;;;;;4.03;3.75;;;;;;;;;;5073448;28;20102;-90
2022/12/15 10:18:45;;;;;;;3.35;3.15;;;;;;;;;;5072563;28;20120;-90
2022/12/15 10:21:14;;;;;;;3.63;3.42;;;;;;;;;;5072460;28;20387;-90
2022/12/15 10:23:40;;;;;;;2.53;2.42;;;;;;;;;;5073013;28;20055;-90
2022/12/15 10:26:18;;;;;;;6.32;6.03;;;;;;;;;;5073103;28;20113;-90
2022/12/15 10:28:50;;;;;;;3.55;3.35;;;;;;;;;;5072546;28;20098;-90
2022/12/15 10:31:18;;;;;;;2.65;2.45;;;;;;;;;;5072610;28;20069;-91
2022/12/15 10:33:50;;;;;;;2.05;1.95;;;;;;;;;;5072618;28;20135;-90
2022/12/15 10:36:18;;;;;;;4.00;3.80;;;;;;;;;;5072291;28;20505;-90
2022/12/15 10:38:46;;;;;;;3.22;3.10;;;;;;;;;;5072284;28;20052;-90
2022/12/15 10:41:14;;;;;;;4.75;4.45;;;;;;;;;;5072487;28;20040;-90
2022/12/15 10:43:42;;;;;;;2.63;2.42;;;;;;;;;;5072731;28;20414;-90
2022/12/15 10:46:13;;;;;;;3.03;2.90;;;;;;;;;;5072818;28;20102;-90
2022/12/15 10:48:40;;;;;;;4.53;4.32;;;;;;;;;;5072284;28;20055;-90
2022/12/15 10:51:31;;;;;;;2.70;2.60;;;;;;;;;;5072920;28;20044;-90
2022/12/15 10:54:05;;;;;;;3.65;3.50;;;;;;;;;;5057151;28;20045;-91
2022/12/15 10:56:33;;;;;;;2.25;2.13;;;;;;;;;;5072481;28;20139;-89
2022/12/15 10:59:00;;;;;;;4.10;3.90;;;;;;;;;;5072334;28;20049;-88
2022/12/15 11:01:27;;;;;;;3.47;3.28;;;;;;;;;;5072602;28;20048;-89
2022/12/15 11:03:55;;;;;;;5.72;2.70;;;;;;;;;;5074563;28;20075;-87
2022/12/15 11:06:22;;;;;;;2.95;2.75;;;;;;;;;;5075456;28;20072;-89
2022/12/15 11:08:50;;;;;;;3.65;3.53;;;;;;;;;;5073235;28;20049;-89
2022/12/15 11:14:14;;;;;;;3.40;3.25;;;;;;;;;;5072084;28;20059;-88
2022/12/15 11:16:45;;;;;;;3.00;2.90;;;;;;;;;;5072150;28;20094;-89
2022/12/15 11:19:13;;;;;;;4.18;3.88;;;;;;;;;;5071927;28;20494;-90
2022/12/15 11:21:42;;;;;;;3.28;3.08;;;;;;;;;;5071916;28;20086;-89
2022/12/15 11:24:12;;;;;;;4.55;4.32;;;;;;;;;;5072285;28;20052;-89
2022/12/15 11:26:44;;;;;;;3.13;2.92;;;;;;;;;;5072503;28;20432;-91
2022/12/15 11:29:15;;;;;;;2.50;2.38;;;;;;;;;;5072240;28;20079;-89
2022/12/15 11:31:43;;;;;;;3.55;3.42;;;;;;;;;;5074647;28;20506;-88
2022/12/15 11:34:12;;;;;;;4.45;4.15;;;;;;;;;;5073963;28;20044;-90
2022/12/15 11:36:53;;;;;;;4.95;4.65;;;;;;;;;;5076331;28;20048;-89
2022/12/15 11:39:22;;;;;;;3.15;3.05;;;;;;;;;;5076244;28;20105;-88
2022/12/15 11:41:54;;;;;;;4.22;3.92;;;;;;;;;;5075597;28;20044;-88
2022/12/15 11:44:24;;;;;;;3.55;3.35;;;;;;;;;;5075773;28;20044;-89
2022/12/15 11:46:55;;;;;;;3.78;3.55;;;;;;;;;;5075819;28;20110;-89
2022/12/15 11:49:39;;;;;;;4.25;4.03;;;;;;;;;;5075974;28;20056;-89
2022/12/15 11:52:12;;;;;;;3.95;3.28;;;;;;;;;;5068927;28;20044;-88
2022/12/15 11:54:43;;;;;;;2.50;2.40;;;;;;;;;;5075891;28;20102;-90
2022/12/15 11:57:20;;;;;;;2.40;2.28;;;;;;;;;;5075847;28;20126;-90
2022/12/15 11:59:57;;;;;;;4.25;4.03;;;;;;;;;;5075850;28;20102;-90
2022/12/15 12:02:35;;;;;;;4.53;2.67;;;;;;;;;;5075750;28;20094;-90
2022/12/15 12:05:12;;;;;;;3.42;3.22;;;;;;;;;;5075478;28;20653;-90
2022/12/15 12:07:43;;;;;;;3.13;2.92;;;;;;;;;;5075852;28;20106;-89
2022/12/15 12:10:14;;;;;;;4.55;4.25;;;;;;;;;;5075592;28;20122;-90
2022/12/15 12:12:43;;;;;;;3.88;3.67;;;;;;;;;;5075644;28;20161;-90
2022/12/15 12:15:19;;;;;;;2.80;2.60;;;;;;;;;;5075352;28;20094;-89
2022/12/15 12:17:47;;;;;;;2.95;2.75;;;;;;;;;;5075209;28;20670;-89
2022/12/15 12:20:16;;;;;;;4.30;4.10;;;;;;;;;;5074954;28;20875;-90
2022/12/15 12:22:45;;;;;;;3.30;3.10;;;;;;;;;;5074967;28;20040;-89
2022/12/15 12:25:14;;;;;;;3.55;3.33;;;;;;;;;;5075628;28;20067;-92
2022/12/15 12:27:44;;;;;;;3.33;3.13;;;;;;;;;;5075466;28;20056;-90
2022/12/15 12:30:13;;;;;;;4.28;3.50;;;;;;;;;;5074718;28;20048;-91
2022/12/15 12:32:43;;;;;;;3.53;3.33;;;;;;;;;;5075299;28;20091;-92
2022/12/15 12:35:14;;;;;;;4.68;4.47;;;;;;;;;;5075187;28;20052;-91
2022/12/15 12:37:42;;;;;;;3.42;3.25;;;;;;;;;;5075081;28;20048;-91
2022/12/15 12:40:16;;;;;;;2.85;2.63;;;;;;;;;;5075173;28;20044;-91
2022/12/15 12:42:47;;;;;;;3.90;3.67;;;;;;;;;;5073912;28;20045;-90
2022/12/15 12:45:14;;;;;;;3.17;2.97;;;;;;;;;;5074663;28;20049;-91
2022/12/15 12:47:45;;;;;;;5.68;5.18;;;;;;;;;;5075249;28;20079;-91
2022/12/15 12:50:15;;;;;;;4.60;4.22;;;;;;;;;;5075305;28;20068;-91
2022/12/15 12:52:46;;;;;;;4.22;4.00;;;;;;;;;;5074810;28;20055;-91
2022/12/15 12:55:23;;;;;;;4.53;4.22;;;;;;;;;;5074459;28;20575;-90
2022/12/15 12:57:51;;;;;;;4.93;4.63;;;;;;;;;;5094958;28;20052;-89
2022/12/15 13:00:19;;;;;;;4.85;4.65;;;;;;;;;;5076006;28;20053;-89
2022/12/15 13:02:48;;;;;;;3.92;3.72;;;;;;;;;;5074088;28;20041;-90
2022/12/15 13:05:25;;;;;;;4.50;4.28;;;;;;;;;;5075943;28;20049;-91
2022/12/15 13:07:54;;;;;;;4.13;3.92;;;;;;;;;;5083383;28;20509;-89
2022/12/15 13:10:21;;;;;;;4.20;3.97;;;;;;;;;;5075417;28;20125;-90
2022/12/15 13:12:48;;;;;;;4.75;4.45;;;;;;;;;;5076212;28;20098;-90
2022/12/15 13:15:21;;;;;;;3.88;3.60;;;;;;;;;;5078988;28;20078;-90
2022/12/15 13:17:50;;;;;;;4.60;4.28;;;;;;;;;;5074429;28;20048;-90
2022/12/15 13:20:19;;;;;;;4.07;3.88;;;;;;;;;;5060083;28;20054;-90
2022/12/15 13:22:46;;;;;;;4.50;4.20;;;;;;;;;;5094056;28;20040;-90
2022/12/15 13:25:34;;;;;;;4.55;4.18;;;;;;;;;;5093796;28;20075;-89
2022/12/15 13:28:01;;;;;;;4.38;2.88;;;;;;;;;;5073234;28;20068;-90
2022/12/15 13:30:29;;;;;;;5.22;4.80;;;;;;;;;;5074013;28;20060;-90
2022/12/15 13:33:13;;;;;;;3.20;3.00;;;;;;;;;;5073949;28;20053;-89
2022/12/15 13:35:41;;;;;;;5.53;5.22;;;;;;;;;;5073706;28;20048;-90
2022/12/15 13:38:16;;;;;;;3.58;3.45;;;;;;;;;;5074280;28;20453;-93
2022/12/15 13:40:52;;;;;;;3.65;3.47;;;;;;;;;;5075096;28;20060;-96
2022/12/15 13:43:40;;;;;;;3.03;2.83;;;;;;;;;;5077426;28;20115;-94
2022/12/15 13:46:14;;;;;;;3.10;2.90;;;;;;;;;;5076715;28;20079;-91
2022/12/15 13:48:42;;;;;;;3.83;3.60;;;;;;;;;;5075228;28;20048;-92
2022/12/15 13:51:19;;;;;;;2.95;2.75;;;;;;;;;;5071473;28;20386;-93
2022/12/15 13:53:45;;;;;;;;;;;;;;;;;;5059708;28;20041;-94
2022/12/15 13:56:21;;;;;;;2.08;1.98;;;;;;;;;;5059446;28;19921;-92
2022/12/15 13:58:52;;;;;;;3.50;3.30;;;;;;;;;;5060368;28;20054;-94
2022/12/15 14:01:22;;;;;;;3.17;2.97;;;;;;;;;;5060004;28;20445;-91
2022/12/15 14:03:59;;;;;;;2.63;2.42;;;;;;;;;;5059537;28;20615;-93
2022/12/15 14:06:27;;;;;;;3.63;3.40;;;;;;;;;;5061091;28;20122;-93
2022/12/15 14:08:53;;;;;;;3.33;3.17;;;;;;;;;;5060047;28;20049;-94
2022/12/15 14:11:22;;;;;;;2.58;2.45;;;;;;;;;;5060804;28;20053;-95
2022/12/15 14:13:50;;;;;;;2.45;2.35;;;;;;;;;;5067596;28;20505;-94
2022/12/15 14:16:18;;;;;;;2.22;2.13;;;;;;;;;;5079553;28;20055;-92
2022/12/15 14:19:02;;;;;;;3.72;3.42;;;;;;;;;;5091009;28;20101;-93
2022/12/15 14:21:29;;;;;;;4.43;3.25;;;;;;;;;;5077517;28;20052;-92
2022/12/15 14:23:56;;;;;;;2.28;2.15;;;;;;;;;;5073586;28;20047;-91
2022/12/15 14:26:29;;;;;;;2.92;2.72;;;;;;;;;;5073258;28;20470;-92
2022/12/15 14:29:00;;;;;;;3.30;3.10;;;;;;;;;;5073196;28;20053;-93
2022/12/15 14:31:26;;;;;;;3.38;3.17;;;;;;;;;;5073366;28;20052;-92
2022/12/15 14:33:58;;;;;;;3.90;3.65;;;;;;;;;;5073088;28;20048;-91
2022/12/15 14:36:25;;;;;;;3.30;3.10;;;;;;;;;;5072905;28;20452;-92
2022/12/15 14:38:54;;;;;;;2.47;2.30;;;;;;;;;;5073114;28;20048;-92
2022/12/15 14:41:21;;;;;;;3.30;3.05;;;;;;;;;;5075488;28;20052;-94
2022/12/15 14:43:49;;;;;;;3.58;3.38;;;;;;;;;;5073272;28;20057;-92
2022/12/15 14:46:17;;;;;;;3.15;2.95;;;;;;;;;;5073193;28;20080;-91
2022/12/15 14:48:45;;;;;;;3.13;2.88;;;;;;;;;;5072514;28;20567;-89
2022/12/15 14:51:13;;;;;;;4.13;3.83;;;;;;;;;;5072830;28;20098;-89
2022/12/15 14:53:41;;;;;;;2.00;1.90;;;;;;;;;;5073013;28;20052;-92
2022/12/15 14:56:25;;;;;;;3.40;3.20;;;;;;;;;;5073360;28;20106;-92
2022/12/15 14:58:58;;;;;;;3.42;3.22;;;;;;;;;;5072999;28;20082;-94
2022/12/15 15:01:26;;;;;;;3.90;3.60;;;;;;;;;;5072797;28;20052;-90
2022/12/15 15:03:56;;;;;;;4.13;3.92;;;;;;;;;;5072271;28;20048;-91
2022/12/15 15:06:28;;;;;;;2.63;2.05;;;;;;;;;;5077490;28;20056;-90
2022/12/15 15:08:55;;;;;;;3.58;3.38;;;;;;;;;;5086443;28;20052;-88
2022/12/15 15:11:25;;;;;;;3.35;2.97;;;;;;;;;;5075355;28;20049;-90
2022/12/15 15:13:54;;;;;;;4.13;3.92;;;;;;;;;;5073337;28;20055;-90
2022/12/15 15:16:20;;;;;;;3.88;3.67;;;;;;;;;;5072438;28;20044;-89
2022/12/15 15:18:49;;;;;;;5.00;4.80;;;;;;;;;;5071349;28;20049;-89
2022/12/15 15:21:18;;;;;;;3.17;3.00;;;;;;;;;;5072400;28;20539;-89
2022/12/15 15:23:58;;;;;;;3.42;3.13;;;;;;;;;;5071895;28;20640;-88
2022/12/15 15:26:25;;;;;;;4.35;4.13;;;;;;;;;;5071874;28;20501;-89
2022/12/15 15:28:52;;;;;;;5.05;4.72;;;;;;;;;;5070787;28;20103;-89
2022/12/15 15:31:26;;;;;;;4.05;3.75;;;;;;;;;;5071463;28;20575;-88
2022/12/15 15:33:55;;;;;;;3.88;3.47;;;;;;;;;;5076589;28;20053;-88
2022/12/15 15:36:22;;;;;;;2.10;2.00;;;;;;;;;;5080547;28;20074;-89
2022/12/15 15:38:50;;;;;;;3.05;2.85;;;;;;;;;;5071667;28;20427;-89
2022/12/15 15:41:22;;;;;;;3.33;3.13;;;;;;;;;;5072190;28;20053;-89
2022/12/15 15:43:48;;;;;;;3.13;2.92;;;;;;;;;;5087544;28;20044;-89
2022/12/15 15:46:16;;;;;;;3.75;3.53;;;;;;;;;;5072221;28;20044;-89
2022/12/15 15:48:44;;;;;;;2.10;1.98;;;;;;;;;;5072212;28;20192;-89
2022/12/15 15:51:12;;;;;;;2.42;2.30;;;;;;;;;;5061249;28;20045;-89
2022/12/15 15:53:38;;;;;;;2.15;2.05;;;;;;;;;;5051782;28;20499;-89
2022/12/15 15:56:06;;;;;;;3.90;3.17;;;;;;;;;;5059740;28;20040;-90
2022/12/15 15:58:34;;;;;;;3.53;3.13;;;;;;;;;;5082290;28;20127;-89
2022/12/15 16:01:01;;;;;;;3.10;2.90;;;;;;;;;;5071468;28;20048;-88
2022/12/15 16:03:27;;;;;;;4.43;4.03;;;;;;;;;;5072343;28;20098;-91
2022/12/15 16:05:54;;;;;;;4.75;4.45;;;;;;;;;;5072196;28;20060;-91
2022/12/15 16:08:22;;;;;;;4.90;4.50;;;;;;;;;;5071903;28;20049;-93
2022/12/15 16:10:49;;;;;;;3.70;3.38;;;;;;;;;;5072355;28;20055;-90
2022/12/15 16:13:17;;;;;;;4.20;3.97;;;;;;;;;;5072619;28;20044;-93
2022/12/15 16:15:45;;;;;;;3.80;3.50;;;;;;;;;;5072372;28;20048;-92
2022/12/15 16:18:11;;;;;;;3.53;3.33;;;;;;;;;;5075624;28;20052;-92
2022/12/15 16:20:38;;;;;;;3.22;2.10;;;;;;;;;;5076525;28;20444;-92
2022/12/15 16:23:07;;;;;;;1.85;1.75;;;;;;;;;;5076165;28;20094;-94
2022/12/15 16:25:34;;;;;;;1.95;1.85;;;;;;;;;;5075406;28;20060;-89
2022/12/15 16:28:01;;;;;;;3.67;3.45;;;;;;;;;;5085197;28;20050;-89
2022/12/15 16:30:28;;;;;;;2.40;2.30;;;;;;;;;;5085232;28;20498;-88
2022/12/15 16:32:56;;;;;;;2.10;2.00;;;;;;;;;;5082556;28;20053;-90
2022/12/15 16:35:24;;;;;;;1.80;1.70;;;;;;;;;;5077917;28;20048;-89
2022/12/15 16:37:51;;;;;;;3.05;2.78;;;;;;;;;;5074080;28;20090;-89
2022/12/15 16:40:19;;;;;;;4.22;3.67;;;;;;;;;;5079234;28;20048;-89
2022/12/15 16:42:48;;;;;;;3.47;3.20;;;;;;;;;;5085312;28;20062;-88
2022/12/15 16:45:16;;;;;;;2.92;2.72;;;;;;;;;;5079158;28;20070;-89
2022/12/15 16:47:43;;;;;;;4.43;4.20;;;;;;;;;;5074857;28;20082;-89
2022/12/15 16:50:14;;;;;;;3.78;3.50;;;;;;;;;;5079117;28;20637;-89
2022/12/15 16:52:41;;;;;;;2.08;1.98;;;;;;;;;;5074545;28;20064;-89
2022/12/15 16:55:10;;;;;;;4.03;3.83;;;;;;;;;;5074603;28;20078;-88
2022/12/15 16:57:37;;;;;;;2.78;2.67;;;;;;;;;;5074521;28;20059;-88
2022/12/15 17:00:11;;;;;;;2.85;2.72;;;;;;;;;;5073242;28;20071;-88
2022/12/15 17:02:38;;;;;;;4.15;3.85;;;;;;;;;;5074222;28;20048;-88
2022/12/15 17:05:05;;;;;;;4.32;4.03;;;;;;;;;;5073042;28;20123;-88
2022/12/15 17:07:33;;;;;;;3.72;2.67;;;;;;;;;;5074363;28;20106;-88
2022/12/15 17:10:01;;;;;;;3.97;3.75;;;;;;;;;;5073790;28;20037;-88
2022/12/15 17:12:27;;;;;;;5.47;5.00;;;;;;;;;;5078083;28;20053;-87
2022/12/15 17:14:54;;;;;;;4.35;4.05;;;;;;;;;;5074664;28;20114;-87
2022/12/15 17:17:20;;;;;;;2.10;1.88;;;;;;;;;;5076145;28;20048;-90
2022/12/15 17:19:48;;;;;;;4.70;4.43;;;;;;;;;;5073632;28;20048;-88